sensor_id;sensor_type;location;lat;lon;timestamp;P1;durP1;ratioP1;P2;durP2;ratioP2
67798;SDS011;54596;43.216;27.904;2024-02-23T00:00:07;34.42;;;24.67;;
67798;SDS011;54596;43.216;27.904;2024-02-23T00:02:35;34.88;;;24.02;;
67798;SDS011;54596;43.216;27.904;2024-02-23T00:05:01;33.88;;;23.98;;
67798;SDS011;54596;43.216;27.904;2024-02-23T00:07:27;33.38;;;24.33;;
67798;SDS011;54596;43.216;27.904;2024-02-23T00:09:52;34.30;;;23.08;;
67798;SDS011;54596;43.216;27.904;2024-02-23T00:12:18;31.58;;;23.10;;
67798;SDS011;54596;43.216;27.904;2024-02-23T00:14:43;35.20;;;23.38;;
67798;SDS011;54596;43.216;27.904;2024-02-23T00:17:09;36.80;;;25.23;;
67798;SDS011;54596;43.216;27.904;2024-02-23T00:19:35;35.15;;;25.15;;
67798;SDS011;54596;43.216;27.904;2024-02-23T00:22:00;32.63;;;23.88;;
67798;SDS011;54596;43.216;27.904;2024-02-23T00:24:28;31.58;;;22.80;;
67798;SDS011;54596;43.216;27.904;2024-02-23T00:26:54;35.25;;;22.92;;
67798;SDS011;54596;43.216;27.904;2024-02-23T00:29:20;30.52;;;22.02;;
67798;SDS011;54596;43.216;27.904;2024-02-23T00:31:46;32.42;;;22.27;;
67798;SDS011;54596;43.216;27.904;2024-02-23T00:34:12;30.83;;;22.45;;
67798;SDS011;54596;43.216;27.904;2024-02-23T00:36:38;33.22;;;23.73;;
67798;SDS011;54596;43.216;27.904;2024-02-23T00:39:06;33.00;;;22.65;;
67798;SDS011;54596;43.216;27.904;2024-02-23T00:41:34;32.90;;;22.08;;
67798;SDS011;54596;43.216;27.904;2024-02-23T00:44:01;33.90;;;22.08;;
67798;SDS011;54596;43.216;27.904;2024-02-23T00:46:27;32.78;;;22.17;;
67798;SDS011;54596;43.216;27.904;2024-02-23T00:48:53;31.33;;;22.38;;
67798;SDS011;54596;43.216;27.904;2024-02-23T00:51:19;30.67;;;22.13;;
67798;SDS011;54596;43.216;27.904;2024-02-23T00:53:45;31.73;;;22.85;;
67798;SDS011;54596;43.216;27.904;2024-02-23T00:56:10;31.58;;;22.50;;
67798;SDS011;54596;43.216;27.904;2024-02-23T00:58:36;32.05;;;22.50;;
67798;SDS011;54596;43.216;27.904;2024-02-23T01:01:01;30.73;;;22.65;;
67798;SDS011;54596;43.216;27.904;2024-02-23T01:03:27;30.45;;;20.95;;
67798;SDS011;54596;43.216;27.904;2024-02-23T01:05:53;30.48;;;22.02;;
67798;SDS011;54596;43.216;27.904;2024-02-23T01:08:19;29.25;;;21.88;;
67798;SDS011;54596;43.216;27.904;2024-02-23T01:10:44;28.33;;;20.58;;
67798;SDS011;54596;43.216;27.904;2024-02-23T01:13:10;29.80;;;20.75;;
67798;SDS011;54596;43.216;27.904;2024-02-23T01:15:36;29.48;;;20.77;;
67798;SDS011;54596;43.216;27.904;2024-02-23T01:18:01;30.15;;;20.75;;
67798;SDS011;54596;43.216;27.904;2024-02-23T01:23:12;27.50;;;19.88;;
67798;SDS011;54596;43.216;27.904;2024-02-23T01:25:37;29.77;;;21.00;;
67798;SDS011;54596;43.216;27.904;2024-02-23T01:28:04;31.50;;;20.63;;
67798;SDS011;54596;43.216;27.904;2024-02-23T01:30:29;27.25;;;20.17;;
67798;SDS011;54596;43.216;27.904;2024-02-23T01:32:55;28.58;;;21.05;;
67798;SDS011;54596;43.216;27.904;2024-02-23T01:35:20;31.15;;;21.67;;
67798;SDS011;54596;43.216;27.904;2024-02-23T01:37:46;29.00;;;20.08;;
67798;SDS011;54596;43.216;27.904;2024-02-23T01:40:12;28.00;;;20.05;;
67798;SDS011;54596;43.216;27.904;2024-02-23T01:42:38;28.48;;;20.38;;
67798;SDS011;54596;43.216;27.904;2024-02-23T01:45:03;27.42;;;20.20;;
67798;SDS011;54596;43.216;27.904;2024-02-23T01:47:30;26.58;;;19.60;;
67798;SDS011;54596;43.216;27.904;2024-02-23T01:49:57;27.33;;;20.08;;
67798;SDS011;54596;43.216;27.904;2024-02-23T01:52:24;28.30;;;20.80;;
67798;SDS011;54596;43.216;27.904;2024-02-23T01:54:50;27.90;;;20.63;;
67798;SDS011;54596;43.216;27.904;2024-02-23T01:57:16;28.33;;;20.23;;
67798;SDS011;54596;43.216;27.904;2024-02-23T01:59:42;27.55;;;20.15;;
67798;SDS011;54596;43.216;27.904;2024-02-23T02:02:08;27.20;;;19.92;;
67798;SDS011;54596;43.216;27.904;2024-02-23T02:04:34;28.17;;;19.85;;
67798;SDS011;54596;43.216;27.904;2024-02-23T02:07:00;28.25;;;20.85;;
67798;SDS011;54596;43.216;27.904;2024-02-23T02:09:26;29.77;;;20.15;;
67798;SDS011;54596;43.216;27.904;2024-02-23T02:11:52;30.17;;;21.63;;
67798;SDS011;54596;43.216;27.904;2024-02-23T02:14:17;29.95;;;21.15;;
67798;SDS011;54596;43.216;27.904;2024-02-23T02:16:43;28.08;;;20.67;;
67798;SDS011;54596;43.216;27.904;2024-02-23T02:19:10;29.77;;;20.48;;
67798;SDS011;54596;43.216;27.904;2024-02-23T02:21:36;29.83;;;21.08;;
67798;SDS011;54596;43.216;27.904;2024-02-23T02:24:02;30.38;;;20.77;;
67798;SDS011;54596;43.216;27.904;2024-02-23T02:26:29;29.75;;;21.33;;
67798;SDS011;54596;43.216;27.904;2024-02-23T02:28:55;30.02;;;20.65;;
67798;SDS011;54596;43.216;27.904;2024-02-23T02:31:20;29.50;;;20.98;;
67798;SDS011;54596;43.216;27.904;2024-02-23T02:33:46;29.33;;;20.58;;
67798;SDS011;54596;43.216;27.904;2024-02-23T02:36:11;29.70;;;21.05;;
67798;SDS011;54596;43.216;27.904;2024-02-23T02:38:37;28.55;;;22.10;;
67798;SDS011;54596;43.216;27.904;2024-02-23T02:41:03;29.58;;;21.00;;
67798;SDS011;54596;43.216;27.904;2024-02-23T02:43:30;30.00;;;21.33;;
67798;SDS011;54596;43.216;27.904;2024-02-23T02:45:56;30.85;;;21.77;;
67798;SDS011;54596;43.216;27.904;2024-02-23T02:48:22;29.25;;;21.35;;
67798;SDS011;54596;43.216;27.904;2024-02-23T02:50:48;28.65;;;20.25;;
67798;SDS011;54596;43.216;27.904;2024-02-23T02:53:15;30.00;;;20.75;;
67798;SDS011;54596;43.216;27.904;2024-02-23T02:55:44;29.50;;;21.90;;
67798;SDS011;54596;43.216;27.904;2024-02-23T02:58:13;29.02;;;20.95;;
67798;SDS011;54596;43.216;27.904;2024-02-23T03:00:39;30.27;;;21.40;;
67798;SDS011;54596;43.216;27.904;2024-02-23T03:03:05;29.33;;;20.90;;
67798;SDS011;54596;43.216;27.904;2024-02-23T03:05:30;29.70;;;21.02;;
67798;SDS011;54596;43.216;27.904;2024-02-23T03:07:56;27.73;;;21.35;;
67798;SDS011;54596;43.216;27.904;2024-02-23T03:10:22;29.85;;;21.48;;
67798;SDS011;54596;43.216;27.904;2024-02-23T03:12:47;28.55;;;21.35;;
67798;SDS011;54596;43.216;27.904;2024-02-23T03:15:13;29.80;;;21.83;;
67798;SDS011;54596;43.216;27.904;2024-02-23T03:17:38;29.35;;;21.33;;
67798;SDS011;54596;43.216;27.904;2024-02-23T03:20:04;29.75;;;21.58;;
67798;SDS011;54596;43.216;27.904;2024-02-23T03:22:34;32.58;;;22.75;;
67798;SDS011;54596;43.216;27.904;2024-02-23T03:25:01;30.63;;;22.38;;
67798;SDS011;54596;43.216;27.904;2024-02-23T03:27:33;31.50;;;22.13;;
67798;SDS011;54596;43.216;27.904;2024-02-23T03:29:59;31.13;;;23.05;;
67798;SDS011;54596;43.216;27.904;2024-02-23T03:32:25;31.17;;;22.92;;
67798;SDS011;54596;43.216;27.904;2024-02-23T03:34:51;32.63;;;23.05;;
67798;SDS011;54596;43.216;27.904;2024-02-23T03:37:16;32.78;;;22.98;;
67798;SDS011;54596;43.216;27.904;2024-02-23T03:39:42;32.58;;;22.75;;
67798;SDS011;54596;43.216;27.904;2024-02-23T03:42:08;31.85;;;22.80;;
67798;SDS011;54596;43.216;27.904;2024-02-23T03:44:33;33.67;;;22.52;;
67798;SDS011;54596;43.216;27.904;2024-02-23T03:46:59;35.20;;;22.77;;
67798;SDS011;54596;43.216;27.904;2024-02-23T03:49:25;32.05;;;22.90;;
67798;SDS011;54596;43.216;27.904;2024-02-23T03:51:50;31.65;;;22.73;;
67798;SDS011;54596;43.216;27.904;2024-02-23T03:54:16;33.88;;;23.52;;
67798;SDS011;54596;43.216;27.904;2024-02-23T03:56:41;32.92;;;23.67;;
67798;SDS011;54596;43.216;27.904;2024-02-23T03:59:07;32.75;;;22.75;;
67798;SDS011;54596;43.216;27.904;2024-02-23T04:01:37;33.53;;;23.98;;
67798;SDS011;54596;43.216;27.904;2024-02-23T04:04:05;34.47;;;23.80;;
67798;SDS011;54596;43.216;27.904;2024-02-23T04:06:31;33.13;;;23.08;;
67798;SDS011;54596;43.216;27.904;2024-02-23T04:08:58;31.75;;;22.88;;
67798;SDS011;54596;43.216;27.904;2024-02-23T04:11:23;32.30;;;23.70;;
67798;SDS011;54596;43.216;27.904;2024-02-23T04:13:49;31.50;;;22.88;;
67798;SDS011;54596;43.216;27.904;2024-02-23T04:16:14;33.20;;;22.73;;
67798;SDS011;54596;43.216;27.904;2024-02-23T04:18:40;34.20;;;23.70;;
67798;SDS011;54596;43.216;27.904;2024-02-23T04:21:05;32.90;;;23.85;;
67798;SDS011;54596;43.216;27.904;2024-02-23T04:23:31;36.70;;;24.20;;
67798;SDS011;54596;43.216;27.904;2024-02-23T04:25:57;36.20;;;25.50;;
67798;SDS011;54596;43.216;27.904;2024-02-23T04:28:22;46.55;;;27.33;;
67798;SDS011;54596;43.216;27.904;2024-02-23T04:30:48;42.83;;;27.00;;
67798;SDS011;54596;43.216;27.904;2024-02-23T04:33:13;35.08;;;25.23;;
67798;SDS011;54596;43.216;27.904;2024-02-23T04:35:39;37.75;;;25.88;;
67798;SDS011;54596;43.216;27.904;2024-02-23T04:38:04;41.28;;;26.60;;
67798;SDS011;54596;43.216;27.904;2024-02-23T04:40:30;40.50;;;26.10;;
67798;SDS011;54596;43.216;27.904;2024-02-23T04:42:55;44.33;;;28.00;;
67798;SDS011;54596;43.216;27.904;2024-02-23T04:45:21;43.97;;;27.20;;
67798;SDS011;54596;43.216;27.904;2024-02-23T04:47:47;39.40;;;25.58;;
67798;SDS011;54596;43.216;27.904;2024-02-23T04:50:13;37.47;;;25.58;;
67798;SDS011;54596;43.216;27.904;2024-02-23T04:52:39;38.22;;;26.35;;
67798;SDS011;54596;43.216;27.904;2024-02-23T04:55:05;38.75;;;25.65;;
67798;SDS011;54596;43.216;27.904;2024-02-23T04:57:31;46.17;;;27.60;;
67798;SDS011;54596;43.216;27.904;2024-02-23T04:59:57;49.25;;;28.20;;
67798;SDS011;54596;43.216;27.904;2024-02-23T05:02:23;42.65;;;26.63;;
67798;SDS011;54596;43.216;27.904;2024-02-23T05:04:48;46.28;;;26.67;;
67798;SDS011;54596;43.216;27.904;2024-02-23T05:07:14;40.58;;;26.30;;
67798;SDS011;54596;43.216;27.904;2024-02-23T05:09:40;37.35;;;25.98;;
67798;SDS011;54596;43.216;27.904;2024-02-23T05:12:06;40.92;;;27.08;;
67798;SDS011;54596;43.216;27.904;2024-02-23T05:14:33;38.08;;;26.25;;
67798;SDS011;54596;43.216;27.904;2024-02-23T05:16:58;37.90;;;26.20;;
67798;SDS011;54596;43.216;27.904;2024-02-23T05:19:24;39.42;;;28.55;;
67798;SDS011;54596;43.216;27.904;2024-02-23T05:21:49;42.00;;;29.52;;
67798;SDS011;54596;43.216;27.904;2024-02-23T05:24:15;37.83;;;27.58;;
67798;SDS011;54596;43.216;27.904;2024-02-23T05:26:41;39.53;;;26.30;;
67798;SDS011;54596;43.216;27.904;2024-02-23T05:29:07;40.70;;;27.50;;
67798;SDS011;54596;43.216;27.904;2024-02-23T05:31:49;36.35;;;26.30;;
67798;SDS011;54596;43.216;27.904;2024-02-23T05:34:16;36.80;;;25.35;;
67798;SDS011;54596;43.216;27.904;2024-02-23T05:36:42;36.03;;;26.13;;
67798;SDS011;54596;43.216;27.904;2024-02-23T05:39:08;40.15;;;25.08;;
67798;SDS011;54596;43.216;27.904;2024-02-23T05:41:35;39.30;;;25.02;;
67798;SDS011;54596;43.216;27.904;2024-02-23T05:44:02;39.60;;;28.13;;
67798;SDS011;54596;43.216;27.904;2024-02-23T05:46:30;42.28;;;27.08;;
67798;SDS011;54596;43.216;27.904;2024-02-23T05:49:00;38.40;;;25.35;;
67798;SDS011;54596;43.216;27.904;2024-02-23T05:51:27;40.25;;;25.50;;
67798;SDS011;54596;43.216;27.904;2024-02-23T05:53:54;36.72;;;24.77;;
67798;SDS011;54596;43.216;27.904;2024-02-23T05:56:20;38.15;;;24.73;;
67798;SDS011;54596;43.216;27.904;2024-02-23T05:58:46;41.60;;;26.55;;
67798;SDS011;54596;43.216;27.904;2024-02-23T06:01:11;40.70;;;26.98;;
67798;SDS011;54596;43.216;27.904;2024-02-23T06:03:37;41.55;;;25.33;;
67798;SDS011;54596;43.216;27.904;2024-02-23T06:06:06;37.25;;;24.83;;
67798;SDS011;54596;43.216;27.904;2024-02-23T06:08:33;39.25;;;24.08;;
67798;SDS011;54596;43.216;27.904;2024-02-23T06:10:59;34.97;;;23.65;;
67798;SDS011;54596;43.216;27.904;2024-02-23T06:13:25;38.65;;;23.98;;
67798;SDS011;54596;43.216;27.904;2024-02-23T06:15:51;37.53;;;23.90;;
67798;SDS011;54596;43.216;27.904;2024-02-23T06:18:17;35.05;;;21.05;;
67798;SDS011;54596;43.216;27.904;2024-02-23T06:20:42;32.20;;;20.98;;
67798;SDS011;54596;43.216;27.904;2024-02-23T06:23:08;32.72;;;20.90;;
67798;SDS011;54596;43.216;27.904;2024-02-23T06:25:33;33.58;;;22.13;;
67798;SDS011;54596;43.216;27.904;2024-02-23T06:27:59;36.40;;;21.23;;
67798;SDS011;54596;43.216;27.904;2024-02-23T06:30:25;26.27;;;17.85;;
67798;SDS011;54596;43.216;27.904;2024-02-23T06:32:50;26.10;;;17.63;;
67798;SDS011;54596;43.216;27.904;2024-02-23T06:35:16;24.65;;;16.75;;
67798;SDS011;54596;43.216;27.904;2024-02-23T06:37:41;24.40;;;16.38;;
67798;SDS011;54596;43.216;27.904;2024-02-23T06:40:07;21.75;;;15.55;;
67798;SDS011;54596;43.216;27.904;2024-02-23T06:42:33;22.08;;;15.70;;
67798;SDS011;54596;43.216;27.904;2024-02-23T06:44:59;23.80;;;14.95;;
67798;SDS011;54596;43.216;27.904;2024-02-23T06:47:24;24.83;;;14.77;;
67798;SDS011;54596;43.216;27.904;2024-02-23T06:49:50;26.52;;;15.73;;
67798;SDS011;54596;43.216;27.904;2024-02-23T06:52:17;24.15;;;16.65;;
67798;SDS011;54596;43.216;27.904;2024-02-23T06:54:43;25.67;;;15.70;;
67798;SDS011;54596;43.216;27.904;2024-02-23T06:57:09;21.40;;;13.90;;
67798;SDS011;54596;43.216;27.904;2024-02-23T06:59:34;24.67;;;15.40;;
67798;SDS011;54596;43.216;27.904;2024-02-23T07:02:00;28.33;;;15.88;;
67798;SDS011;54596;43.216;27.904;2024-02-23T07:04:27;24.67;;;15.25;;
67798;SDS011;54596;43.216;27.904;2024-02-23T07:06:54;23.98;;;14.75;;
67798;SDS011;54596;43.216;27.904;2024-02-23T07:09:20;23.73;;;15.23;;
67798;SDS011;54596;43.216;27.904;2024-02-23T07:11:46;24.60;;;15.88;;
67798;SDS011;54596;43.216;27.904;2024-02-23T07:14:12;29.25;;;17.00;;
67798;SDS011;54596;43.216;27.904;2024-02-23T07:16:39;22.85;;;15.07;;
67798;SDS011;54596;43.216;27.904;2024-02-23T07:19:06;25.60;;;16.17;;
67798;SDS011;54596;43.216;27.904;2024-02-23T07:21:32;22.77;;;15.77;;
67798;SDS011;54596;43.216;27.904;2024-02-23T07:23:58;23.88;;;15.98;;
67798;SDS011;54596;43.216;27.904;2024-02-23T07:26:25;24.02;;;16.10;;
67798;SDS011;54596;43.216;27.904;2024-02-23T07:28:53;27.65;;;15.93;;
67798;SDS011;54596;43.216;27.904;2024-02-23T07:31:19;24.63;;;16.25;;
67798;SDS011;54596;43.216;27.904;2024-02-23T07:33:44;25.85;;;17.98;;
67798;SDS011;54596;43.216;27.904;2024-02-23T07:36:16;27.05;;;16.67;;
67798;SDS011;54596;43.216;27.904;2024-02-23T07:38:42;23.67;;;15.27;;
67798;SDS011;54596;43.216;27.904;2024-02-23T07:41:09;23.10;;;16.25;;
67798;SDS011;54596;43.216;27.904;2024-02-23T07:43:36;26.38;;;15.70;;
67798;SDS011;54596;43.216;27.904;2024-02-23T07:46:01;24.63;;;16.27;;
67798;SDS011;54596;43.216;27.904;2024-02-23T07:48:27;22.00;;;15.57;;
67798;SDS011;54596;43.216;27.904;2024-02-23T07:50:53;26.90;;;16.35;;
67798;SDS011;54596;43.216;27.904;2024-02-23T07:53:19;24.52;;;14.98;;
67798;SDS011;54596;43.216;27.904;2024-02-23T07:55:44;26.58;;;15.65;;
67798;SDS011;54596;43.216;27.904;2024-02-23T07:58:10;24.92;;;15.30;;
67798;SDS011;54596;43.216;27.904;2024-02-23T08:00:35;20.77;;;14.88;;
67798;SDS011;54596;43.216;27.904;2024-02-23T08:03:03;28.15;;;16.40;;
67798;SDS011;54596;43.216;27.904;2024-02-23T08:05:31;20.73;;;14.23;;
67798;SDS011;54596;43.216;27.904;2024-02-23T08:07:58;21.35;;;14.23;;
67798;SDS011;54596;43.216;27.904;2024-02-23T08:10:23;26.33;;;13.93;;
67798;SDS011;54596;43.216;27.904;2024-02-23T08:12:50;17.35;;;12.10;;
67798;SDS011;54596;43.216;27.904;2024-02-23T08:15:16;19.42;;;11.88;;
67798;SDS011;54596;43.216;27.904;2024-02-23T08:17:42;22.40;;;13.43;;
67798;SDS011;54596;43.216;27.904;2024-02-23T08:20:07;18.15;;;12.35;;
67798;SDS011;54596;43.216;27.904;2024-02-23T08:22:33;19.25;;;13.45;;
67798;SDS011;54596;43.216;27.904;2024-02-23T08:24:59;21.42;;;12.98;;
67798;SDS011;54596;43.216;27.904;2024-02-23T08:27:25;20.77;;;13.18;;
67798;SDS011;54596;43.216;27.904;2024-02-23T08:29:50;17.80;;;11.50;;
67798;SDS011;54596;43.216;27.904;2024-02-23T08:32:16;17.63;;;11.40;;
67798;SDS011;54596;43.216;27.904;2024-02-23T08:34:43;17.60;;;12.25;;
67798;SDS011;54596;43.216;27.904;2024-02-23T08:37:10;19.77;;;11.88;;
67798;SDS011;54596;43.216;27.904;2024-02-23T08:39:37;18.70;;;12.90;;
67798;SDS011;54596;43.216;27.904;2024-02-23T08:42:02;19.42;;;12.93;;
67798;SDS011;54596;43.216;27.904;2024-02-23T08:44:28;21.33;;;13.00;;
67798;SDS011;54596;43.216;27.904;2024-02-23T08:46:54;18.58;;;12.70;;
67798;SDS011;54596;43.216;27.904;2024-02-23T08:49:19;21.35;;;13.35;;
67798;SDS011;54596;43.216;27.904;2024-02-23T08:51:45;26.17;;;16.00;;
67798;SDS011;54596;43.216;27.904;2024-02-23T08:54:10;22.20;;;14.57;;
67798;SDS011;54596;43.216;27.904;2024-02-23T08:56:37;20.50;;;13.65;;
67798;SDS011;54596;43.216;27.904;2024-02-23T08:59:04;18.65;;;12.50;;
67798;SDS011;54596;43.216;27.904;2024-02-23T09:01:30;19.40;;;13.07;;
67798;SDS011;54596;43.216;27.904;2024-02-23T09:03:55;21.95;;;13.82;;
67798;SDS011;54596;43.216;27.904;2024-02-23T09:06:21;20.33;;;13.60;;
67798;SDS011;54596;43.216;27.904;2024-02-23T09:08:46;23.73;;;13.95;;
67798;SDS011;54596;43.216;27.904;2024-02-23T09:11:12;26.02;;;14.82;;
67798;SDS011;54596;43.216;27.904;2024-02-23T09:13:39;23.00;;;14.68;;
67798;SDS011;54596;43.216;27.904;2024-02-23T09:16:04;21.73;;;14.27;;
67798;SDS011;54596;43.216;27.904;2024-02-23T09:18:31;21.48;;;14.25;;
67798;SDS011;54596;43.216;27.904;2024-02-23T09:20:56;23.38;;;14.68;;
67798;SDS011;54596;43.216;27.904;2024-02-23T09:23:22;25.70;;;14.77;;
67798;SDS011;54596;43.216;27.904;2024-02-23T09:25:47;21.75;;;15.43;;
67798;SDS011;54596;43.216;27.904;2024-02-23T09:28:13;24.38;;;15.40;;
67798;SDS011;54596;43.216;27.904;2024-02-23T09:30:38;24.25;;;15.07;;
67798;SDS011;54596;43.216;27.904;2024-02-23T09:33:04;23.33;;;15.50;;
67798;SDS011;54596;43.216;27.904;2024-02-23T09:35:30;25.45;;;15.95;;
67798;SDS011;54596;43.216;27.904;2024-02-23T09:37:55;23.27;;;15.15;;
67798;SDS011;54596;43.216;27.904;2024-02-23T09:40:21;23.70;;;16.27;;
67798;SDS011;54596;43.216;27.904;2024-02-23T09:42:52;24.75;;;15.45;;
67798;SDS011;54596;43.216;27.904;2024-02-23T09:45:26;21.73;;;14.45;;
67798;SDS011;54596;43.216;27.904;2024-02-23T09:47:54;23.80;;;14.27;;
67798;SDS011;54596;43.216;27.904;2024-02-23T09:50:23;22.60;;;14.05;;
67798;SDS011;54596;43.216;27.904;2024-02-23T09:52:50;21.98;;;13.98;;
67798;SDS011;54596;43.216;27.904;2024-02-23T09:55:16;21.77;;;14.45;;
67798;SDS011;54596;43.216;27.904;2024-02-23T09:57:44;25.02;;;15.48;;
67798;SDS011;54596;43.216;27.904;2024-02-23T10:00:11;25.38;;;15.07;;
67798;SDS011;54596;43.216;27.904;2024-02-23T10:02:37;23.85;;;15.30;;
67798;SDS011;54596;43.216;27.904;2024-02-23T10:05:04;30.20;;;16.08;;
67798;SDS011;54596;43.216;27.904;2024-02-23T10:07:32;22.10;;;12.95;;
67798;SDS011;54596;43.216;27.904;2024-02-23T10:09:58;19.63;;;13.10;;
67798;SDS011;54596;43.216;27.904;2024-02-23T10:12:24;22.48;;;12.30;;
67798;SDS011;54596;43.216;27.904;2024-02-23T10:14:49;19.30;;;11.52;;
67798;SDS011;54596;43.216;27.904;2024-02-23T10:17:15;20.05;;;11.30;;
67798;SDS011;54596;43.216;27.904;2024-02-23T10:19:40;19.70;;;10.82;;
67798;SDS011;54596;43.216;27.904;2024-02-23T10:22:06;16.38;;;10.15;;
67798;SDS011;54596;43.216;27.904;2024-02-23T10:24:32;17.70;;;10.13;;
67798;SDS011;54596;43.216;27.904;2024-02-23T10:26:57;26.83;;;13.98;;
67798;SDS011;54596;43.216;27.904;2024-02-23T10:29:23;18.58;;;11.75;;
67798;SDS011;54596;43.216;27.904;2024-02-23T10:31:49;18.42;;;9.88;;
67798;SDS011;54596;43.216;27.904;2024-02-23T10:34:18;18.80;;;11.00;;
67798;SDS011;54596;43.216;27.904;2024-02-23T10:36:44;20.75;;;12.80;;
67798;SDS011;54596;43.216;27.904;2024-02-23T10:39:14;17.40;;;10.15;;
67798;SDS011;54596;43.216;27.904;2024-02-23T10:41:42;20.27;;;11.82;;
67798;SDS011;54596;43.216;27.904;2024-02-23T10:44:21;24.75;;;13.93;;
67798;SDS011;54596;43.216;27.904;2024-02-23T10:46:47;19.15;;;11.65;;
67798;SDS011;54596;43.216;27.904;2024-02-23T10:49:16;21.77;;;12.07;;
67798;SDS011;54596;43.216;27.904;2024-02-23T10:51:45;17.30;;;10.63;;
67798;SDS011;54596;43.216;27.904;2024-02-23T10:54:13;14.65;;;8.85;;
67798;SDS011;54596;43.216;27.904;2024-02-23T10:56:42;15.73;;;9.73;;
67798;SDS011;54596;43.216;27.904;2024-02-23T10:59:08;18.35;;;11.38;;
67798;SDS011;54596;43.216;27.904;2024-02-23T11:01:34;20.02;;;9.68;;
67798;SDS011;54596;43.216;27.904;2024-02-23T11:04:01;14.25;;;8.43;;
67798;SDS011;54596;43.216;27.904;2024-02-23T11:06:28;15.68;;;8.85;;
67798;SDS011;54596;43.216;27.904;2024-02-23T11:08:53;13.82;;;8.43;;
67798;SDS011;54596;43.216;27.904;2024-02-23T11:11:31;17.35;;;11.50;;
67798;SDS011;54596;43.216;27.904;2024-02-23T11:13:58;20.80;;;11.32;;
67798;SDS011;54596;43.216;27.904;2024-02-23T11:16:28;16.70;;;10.63;;
67798;SDS011;54596;43.216;27.904;2024-02-23T11:19:06;19.02;;;11.23;;
67798;SDS011;54596;43.216;27.904;2024-02-23T11:21:37;18.25;;;11.15;;
67798;SDS011;54596;43.216;27.904;2024-02-23T11:24:04;18.80;;;10.50;;
67798;SDS011;54596;43.216;27.904;2024-02-23T11:26:30;18.85;;;10.32;;
67798;SDS011;54596;43.216;27.904;2024-02-23T11:28:58;17.17;;;11.32;;
67798;SDS011;54596;43.216;27.904;2024-02-23T11:31:25;21.88;;;11.93;;
67798;SDS011;54596;43.216;27.904;2024-02-23T11:33:56;17.17;;;12.10;;
67798;SDS011;54596;43.216;27.904;2024-02-23T11:36:22;20.00;;;11.88;;
67798;SDS011;54596;43.216;27.904;2024-02-23T11:38:52;21.55;;;12.52;;
67798;SDS011;54596;43.216;27.904;2024-02-23T11:41:21;23.08;;;13.20;;
67798;SDS011;54596;43.216;27.904;2024-02-23T11:43:48;25.27;;;15.63;;
67798;SDS011;54596;43.216;27.904;2024-02-23T11:46:15;27.45;;;14.30;;
67798;SDS011;54596;43.216;27.904;2024-02-23T11:48:43;21.48;;;13.88;;
67798;SDS011;54596;43.216;27.904;2024-02-23T11:51:11;22.00;;;14.18;;
67798;SDS011;54596;43.216;27.904;2024-02-23T11:53:40;23.23;;;14.80;;
67798;SDS011;54596;43.216;27.904;2024-02-23T11:56:06;25.88;;;15.35;;
67798;SDS011;54596;43.216;27.904;2024-02-23T11:58:32;25.92;;;14.73;;
67798;SDS011;54596;43.216;27.904;2024-02-23T12:00:59;21.48;;;13.65;;
67798;SDS011;54596;43.216;27.904;2024-02-23T12:03:27;25.60;;;15.07;;
67798;SDS011;54596;43.216;27.904;2024-02-23T12:05:59;22.05;;;15.00;;
67798;SDS011;54596;43.216;27.904;2024-02-23T12:08:26;24.73;;;15.05;;
67798;SDS011;54596;43.216;27.904;2024-02-23T12:10:53;24.08;;;16.08;;
67798;SDS011;54596;43.216;27.904;2024-02-23T12:13:20;25.27;;;15.20;;
67798;SDS011;54596;43.216;27.904;2024-02-23T12:15:46;25.10;;;15.10;;
67798;SDS011;54596;43.216;27.904;2024-02-23T12:18:12;21.38;;;14.05;;
67798;SDS011;54596;43.216;27.904;2024-02-23T12:20:38;24.50;;;15.43;;
67798;SDS011;54596;43.216;27.904;2024-02-23T12:23:04;25.80;;;15.35;;
67798;SDS011;54596;43.216;27.904;2024-02-23T12:25:38;24.05;;;15.90;;
67798;SDS011;54596;43.216;27.904;2024-02-23T12:28:06;25.77;;;15.85;;
67798;SDS011;54596;43.216;27.904;2024-02-23T12:30:32;28.58;;;17.05;;
67798;SDS011;54596;43.216;27.904;2024-02-23T12:33:07;26.48;;;16.30;;
67798;SDS011;54596;43.216;27.904;2024-02-23T12:35:33;25.65;;;16.08;;
67798;SDS011;54596;43.216;27.904;2024-02-23T12:38:00;25.55;;;15.93;;
67798;SDS011;54596;43.216;27.904;2024-02-23T12:40:25;24.83;;;16.80;;
67798;SDS011;54596;43.216;27.904;2024-02-23T12:42:51;26.42;;;16.45;;
67798;SDS011;54596;43.216;27.904;2024-02-23T12:45:17;24.90;;;16.23;;
67798;SDS011;54596;43.216;27.904;2024-02-23T12:47:43;24.40;;;16.15;;
67798;SDS011;54596;43.216;27.904;2024-02-23T12:50:08;27.10;;;17.15;;
67798;SDS011;54596;43.216;27.904;2024-02-23T12:52:35;29.70;;;18.15;;
67798;SDS011;54596;43.216;27.904;2024-02-23T12:55:00;26.60;;;16.95;;
67798;SDS011;54596;43.216;27.904;2024-02-23T12:57:26;28.98;;;18.08;;
67798;SDS011;54596;43.216;27.904;2024-02-23T12:59:51;27.00;;;17.02;;
67798;SDS011;54596;43.216;27.904;2024-02-23T13:02:17;30.52;;;17.90;;
67798;SDS011;54596;43.216;27.904;2024-02-23T13:04:43;29.20;;;18.05;;
67798;SDS011;54596;43.216;27.904;2024-02-23T13:07:13;29.88;;;18.58;;
67798;SDS011;54596;43.216;27.904;2024-02-23T13:09:40;27.77;;;17.35;;
67798;SDS011;54596;43.216;27.904;2024-02-23T13:12:05;27.88;;;17.17;;
67798;SDS011;54596;43.216;27.904;2024-02-23T13:14:31;31.48;;;17.75;;
67798;SDS011;54596;43.216;27.904;2024-02-23T13:16:57;28.35;;;17.85;;
67798;SDS011;54596;43.216;27.904;2024-02-23T13:19:23;24.63;;;16.25;;
67798;SDS011;54596;43.216;27.904;2024-02-23T13:21:48;26.95;;;17.48;;
67798;SDS011;54596;43.216;27.904;2024-02-23T13:24:14;26.08;;;16.23;;
67798;SDS011;54596;43.216;27.904;2024-02-23T13:26:40;27.75;;;17.17;;
67798;SDS011;54596;43.216;27.904;2024-02-23T13:29:06;26.15;;;17.48;;
67798;SDS011;54596;43.216;27.904;2024-02-23T13:31:32;29.95;;;17.55;;
67798;SDS011;54596;43.216;27.904;2024-02-23T13:33:57;26.90;;;16.98;;
67798;SDS011;54596;43.216;27.904;2024-02-23T13:36:23;27.00;;;17.35;;
67798;SDS011;54596;43.216;27.904;2024-02-23T13:38:48;26.70;;;17.15;;
67798;SDS011;54596;43.216;27.904;2024-02-23T13:41:16;27.80;;;16.23;;
67798;SDS011;54596;43.216;27.904;2024-02-23T13:43:42;26.33;;;16.50;;
67798;SDS011;54596;43.216;27.904;2024-02-23T13:46:07;22.65;;;16.50;;
67798;SDS011;54596;43.216;27.904;2024-02-23T13:48:33;25.85;;;16.85;;
67798;SDS011;54596;43.216;27.904;2024-02-23T13:50:58;24.98;;;16.50;;
67798;SDS011;54596;43.216;27.904;2024-02-23T13:53:29;25.95;;;16.35;;
67798;SDS011;54596;43.216;27.904;2024-02-23T13:55:56;28.33;;;16.33;;
67798;SDS011;54596;43.216;27.904;2024-02-23T13:58:22;28.27;;;16.58;;
67798;SDS011;54596;43.216;27.904;2024-02-23T14:00:47;27.95;;;17.05;;
67798;SDS011;54596;43.216;27.904;2024-02-23T14:03:17;26.77;;;16.98;;
67798;SDS011;54596;43.216;27.904;2024-02-23T14:05:46;24.60;;;16.67;;